createdAt,value
2017-11-09T00:02:27.927Z,37.83
2017-11-09T00:07:29.657Z,38.20
2017-11-09T00:12:32.099Z,39.03
2017-11-09T00:17:33.874Z,41.10
2017-11-09T00:22:36.337Z,42.00
2017-11-09T00:27:38.023Z,40.77
2017-11-09T00:32:40.616Z,41.93
2017-11-09T00:37:43.053Z,41.37
2017-11-09T00:42:44.909Z,39.13
2017-11-09T00:47:46.629Z,40.87
2017-11-09T00:52:48.384Z,39.43
2017-11-09T00:57:50.077Z,43.20
2017-11-09T01:02:51.800Z,38.60
2017-11-09T01:07:53.501Z,41.70
2017-11-09T01:12:55.928Z,42.23
2017-11-09T01:17:58.696Z,40.00
2017-11-09T01:23:00.485Z,39.57
2017-11-09T01:28:02.356Z,41.30
2017-11-09T01:33:04.818Z,43.70
2017-11-09T01:38:06.550Z,41.63
2017-11-09T01:43:08.311Z,40.50
2017-11-09T01:48:10.088Z,42.30
2017-11-09T01:53:12.521Z,41.77
2017-11-09T01:58:14.274Z,41.73
2017-11-09T02:03:16.040Z,40.33
2017-11-09T02:08:17.843Z,41.00
2017-11-09T02:13:19.543Z,37.67
2017-11-09T02:18:21.326Z,38.27
2017-11-09T02:23:23.069Z,37.97
2017-11-09T02:28:24.815Z,37.77
2017-11-09T02:33:26.592Z,39.20
2017-11-09T02:38:28.405Z,36.73
2017-11-09T02:43:30.135Z,38.00
2017-11-09T02:48:31.870Z,38.40
2017-11-09T02:53:33.559Z,39.90
2017-11-09T02:58:35.296Z,37.30
2017-11-09T03:03:37.024Z,37.70
2017-11-09T03:08:38.710Z,38.07
2017-11-09T03:13:40.443Z,40.67
2017-11-09T03:18:42.120Z,38.93
2017-11-09T03:23:43.820Z,37.87
2017-11-09T03:28:45.499Z,38.93
2017-11-09T03:33:47.181Z,38.07
2017-11-09T03:38:48.877Z,39.90
2017-11-09T03:43:51.321Z,39.33
2017-11-09T03:48:53.027Z,40.20
2017-11-09T03:53:54.719Z,40.83
2017-11-09T03:58:56.464Z,38.50
2017-11-09T04:03:58.921Z,38.50
2017-11-09T04:09:00.663Z,38.40
2017-11-09T04:14:02.410Z,39.30
2017-11-09T04:19:04.572Z,39.60
2017-11-09T04:24:06.265Z,40.20
2017-11-09T04:29:07.968Z,41.37
2017-11-09T04:34:09.767Z,38.13
2017-11-09T04:39:11.539Z,39.80
2017-11-09T04:44:13.283Z,38.40
2017-11-09T04:49:14.964Z,39.50
2017-11-09T04:54:16.794Z,41.53
2017-11-09T04:59:19.224Z,39.70
2017-11-09T05:04:20.893Z,37.97
2017-11-09T05:09:22.574Z,39.10
2017-11-09T05:14:24.275Z,41.47
2017-11-09T05:19:25.991Z,43.57
2017-11-09T05:24:28.432Z,42.10
2017-11-09T05:29:30.116Z,39.03
2017-11-09T05:34:33.957Z,43.47
2017-11-09T05:39:36.492Z,40.90
2017-11-09T05:44:38.176Z,43.90
2017-11-09T05:49:39.959Z,43.83
2017-11-09T05:54:41.773Z,42.60
2017-11-09T05:59:44.230Z,42.77
2017-11-09T06:04:45.947Z,40.60
2017-11-09T06:09:47.685Z,42.13
2017-11-09T06:14:50.320Z,41.27
2017-11-09T06:19:52.105Z,37.97
2017-11-09T06:24:54.691Z,43.90
2017-11-09T06:29:57.269Z,41.47
2017-11-09T06:34:59.629Z,40.00
2017-11-09T06:40:02.171Z,42.37
2017-11-09T06:45:03.874Z,41.73
2017-11-09T06:50:06.586Z,40.77
2017-11-09T06:55:09.011Z,43.50
2017-11-09T07:00:11.458Z,46.70
2017-11-09T07:05:15.660Z,45.80
2017-11-09T07:10:18.787Z,47.63
2017-11-09T07:15:20.602Z,48.43
2017-11-09T07:20:22.543Z,48.53
2017-11-09T07:25:24.303Z,46.90
2017-11-09T07:30:26.058Z,48.23
2017-11-09T07:35:27.776Z,46.83
2017-11-09T07:40:33.674Z,46.70
2017-11-09T07:45:37.732Z,47.60
2017-11-09T07:50:39.768Z,49.40
2017-11-09T07:55:41.522Z,46.97
2017-11-09T08:00:43.235Z,46.70
2017-11-09T08:05:44.944Z,48.40
2017-11-09T08:10:47.144Z,47.67
2017-11-09T08:15:48.900Z,47.60
2017-11-09T08:20:51.040Z,46.80
2017-11-09T08:25:55.670Z,44.93
2017-11-09T08:31:00.955Z,46.83
2017-11-09T08:36:02.704Z,48.53
2017-11-09T08:41:04.424Z,46.83
2017-11-09T08:46:06.951Z,48.43
2017-11-09T08:51:09.436Z,48.17
2017-11-09T08:56:11.325Z,47.70
2017-11-09T09:01:13.068Z,49.27
2017-11-09T09:06:14.755Z,48.63
2017-11-09T09:11:16.635Z,46.80
2017-11-09T09:16:18.436Z,49.60
2017-11-09T09:27:07.165Z,51.57
2017-11-09T09:32:09.260Z,49.90
2017-11-09T09:43:01.311Z,50.10
2017-11-09T09:48:03.894Z,47.53
2017-11-09T09:53:05.773Z,48.43
2017-11-09T09:58:07.509Z,45.23
2017-11-09T10:03:11.052Z,46.10
2017-11-09T10:08:12.870Z,48.00
2017-11-09T10:13:16.166Z,46.93
2017-11-09T10:18:17.988Z,47.20
2017-11-09T10:23:22.671Z,45.67
2017-11-09T10:28:25.273Z,47.00
2017-11-09T10:33:28.474Z,44.97
2017-11-09T10:38:30.264Z,45.53
2017-11-09T10:43:31.975Z,43.63
2017-11-09T10:48:33.748Z,43.73
2017-11-09T10:53:35.518Z,40.80
2017-11-09T10:58:37.344Z,43.97
2017-11-09T11:03:39.092Z,42.80
2017-11-09T11:08:41.520Z,42.50
2017-11-09T11:13:43.176Z,42.10
2017-11-09T11:18:44.868Z,42.60
2017-11-09T11:23:46.545Z,41.10
2017-11-09T11:28:48.216Z,37.43
2017-11-09T11:33:49.897Z,35.33
2017-11-09T11:38:52.320Z,37.20
2017-11-09T11:43:54.035Z,38.23
2017-11-09T11:48:55.725Z,38.07
2017-11-09T11:53:57.414Z,35.90
2017-11-09T11:58:59.112Z,37.77
2017-11-09T12:04:00.809Z,37.60
2017-11-09T12:09:02.601Z,36.90
2017-11-09T12:14:04.336Z,40.40
2017-11-09T12:19:06.045Z,37.80
2017-11-09T12:24:07.762Z,39.23
2017-11-09T12:29:09.481Z,38.83
2017-11-09T12:34:11.892Z,38.47
2017-11-09T12:39:14.364Z,38.40
2017-11-09T12:44:16.058Z,37.97
2017-11-09T12:49:17.780Z,37.50
2017-11-09T12:54:19.477Z,37.50
2017-11-09T12:59:21.214Z,37.37
2017-11-09T13:04:23.637Z,34.23
2017-11-09T13:09:26.103Z,38.70
2017-11-09T13:14:27.868Z,38.43
2017-11-09T13:19:32.457Z,35.80
2017-11-09T13:24:34.199Z,34.10
2017-11-09T13:29:35.873Z,33.53
2017-11-09T13:34:37.610Z,31.47
2017-11-09T13:39:39.338Z,30.97
2017-11-09T13:44:41.177Z,30.03
2017-11-09T13:49:42.859Z,31.37
2017-11-09T13:54:44.560Z,28.70
2017-11-09T13:59:46.414Z,30.47
2017-11-09T14:04:48.111Z,31.37
2017-11-09T14:09:49.823Z,28.60
2017-11-09T14:14:51.505Z,30.40
2017-11-09T14:19:53.187Z,29.90
2017-11-09T14:24:55.604Z,30.03
2017-11-09T14:29:58.054Z,28.67
2017-11-09T14:34:59.809Z,29.37
2017-11-09T14:40:02.262Z,32.20
2017-11-09T14:45:03.961Z,28.63
2017-11-09T14:50:05.656Z,29.40
2017-11-09T14:55:07.362Z,28.10
2017-11-09T15:00:09.076Z,30.77
2017-11-09T15:05:10.776Z,32.83
2017-11-09T15:10:13.105Z,34.17
2017-11-09T15:15:15.425Z,33.70
2017-11-09T15:20:17.159Z,35.47
2017-11-09T15:25:18.895Z,35.63
2017-11-09T15:30:20.658Z,35.17
2017-11-09T15:35:22.326Z,36.50
2017-11-09T15:40:24.733Z,34.60
2017-11-09T15:45:27.137Z,35.00
2017-11-09T15:50:28.813Z,34.20
2017-11-09T15:55:31.485Z,34.70
2017-11-09T16:00:33.939Z,35.43
2017-11-09T16:05:35.706Z,35.87
2017-11-09T16:10:39.288Z,37.17
2017-11-09T16:15:40.970Z,37.93
2017-11-09T16:20:42.665Z,35.83
2017-11-09T16:25:44.366Z,36.67
2017-11-09T16:30:46.483Z,38.37
2017-11-09T16:35:48.176Z,38.80
2017-11-09T16:40:49.907Z,38.50
2017-11-09T16:45:51.610Z,40.50
2017-11-09T16:50:53.290Z,37.73
2017-11-09T16:55:55.795Z,37.53
2017-11-09T17:00:57.512Z,40.07
2017-11-09T17:05:59.199Z,38.30
2017-11-09T17:11:00.880Z,37.77
2017-11-09T17:16:02.612Z,39.20
2017-11-09T17:21:04.328Z,42.87
2017-11-09T17:26:06.018Z,43.47
2017-11-09T17:31:07.687Z,38.67
2017-11-09T17:36:09.366Z,42.93
2017-11-09T17:41:11.068Z,45.37
2017-11-09T17:46:12.761Z,49.70
2017-11-09T17:51:14.512Z,38.77
2017-11-09T17:56:16.344Z,40.67
2017-11-09T18:01:18.077Z,39.43
2017-11-09T18:06:19.763Z,39.70
2017-11-09T18:11:21.446Z,50.35
2017-11-09T18:16:25.618Z,41.53
2017-11-09T18:21:27.347Z,40.07
2017-11-09T18:26:29.025Z,40.80
2017-11-09T18:31:33.519Z,42.40
2017-11-09T18:36:35.264Z,42.20
2017-11-09T18:41:36.980Z,42.60
2017-11-09T18:46:38.700Z,42.20
2017-11-09T18:51:43.810Z,41.93
2017-11-09T18:56:50.610Z,41.60
2017-11-09T19:02:01.302Z,42.10
2017-11-09T19:07:11.552Z,41.10
2017-11-09T19:12:20.273Z,43.50
2017-11-09T19:17:27.413Z,44.03
2017-11-09T19:22:38.286Z,43.97
2017-11-09T19:27:49.605Z,40.43
2017-11-09T19:32:57.224Z,43.63
2017-11-09T19:38:05.559Z,44.40
2017-11-09T19:43:12.096Z,43.40
2017-11-09T19:48:20.338Z,41.67
2017-11-09T19:53:25.105Z,41.20
2017-11-09T19:58:32.556Z,40.50
2017-11-09T20:03:40.017Z,38.90
2017-11-09T20:08:47.146Z,40.10
2017-11-09T20:13:54.515Z,40.07
2017-11-09T20:19:00.653Z,41.27
2017-11-09T20:24:08.183Z,41.27
2017-11-09T20:29:15.172Z,41.33
2017-11-09T20:34:20.938Z,42.67
2017-11-09T20:39:27.103Z,42.03
2017-11-09T20:44:29.306Z,38.87
2017-11-09T20:49:34.022Z,39.70
2017-11-09T20:54:35.787Z,38.20
2017-11-09T20:59:37.587Z,37.20
2017-11-09T21:04:39.299Z,36.20
2017-11-09T21:09:41.057Z,35.77
2017-11-09T21:14:44.023Z,38.17
2017-11-09T21:19:47.735Z,34.33
2017-11-09T21:24:52.883Z,35.90
2017-11-09T21:29:58.377Z,36.50
2017-11-09T21:35:02.163Z,36.90
2017-11-09T21:40:05.830Z,37.63
2017-11-09T21:45:08.249Z,36.80
2017-11-09T21:50:10.617Z,35.10
2017-11-09T21:55:13.074Z,34.93
2017-11-09T22:00:15.317Z,37.50
2017-11-09T22:05:17.646Z,36.17
2017-11-09T22:10:20.803Z,35.67
2017-11-09T22:15:23.138Z,35.40
2017-11-09T22:20:25.515Z,35.10
2017-11-09T22:25:28.022Z,35.60
2017-11-09T22:30:30.120Z,36.20
2017-11-09T22:35:32.882Z,35.47
2017-11-09T22:40:34.583Z,33.90
2017-11-09T22:45:36.267Z,32.57
2017-11-09T22:50:37.960Z,31.13
2017-11-09T22:55:39.636Z,33.17
2017-11-09T23:00:42.130Z,31.47
2017-11-09T23:05:43.807Z,31.47
2017-11-09T23:10:45.554Z,30.27
2017-11-09T23:15:47.988Z,29.00
2017-11-09T23:20:49.743Z,28.97
2017-11-09T23:25:51.524Z,28.40
2017-11-09T23:30:53.229Z,27.93
2017-11-09T23:35:54.963Z,28.03
2017-11-09T23:40:57.388Z,26.60
2017-11-09T23:45:59.855Z,28.30
2017-11-09T23:51:01.560Z,25.70
2017-11-09T23:56:03.242Z,27.13
